createdAt,value
2018-01-19T00:02:18.452Z,78.10
2018-01-19T00:04:46.808Z,77.90
2018-01-19T00:07:15.943Z,78.10
2018-01-19T00:09:44.319Z,78.10
2018-01-19T00:12:12.697Z,78.10
2018-01-19T00:14:41.078Z,78.00
2018-01-19T00:17:09.432Z,78.40
2018-01-19T00:19:37.791Z,78.20
2018-01-19T00:22:06.930Z,78.20
2018-01-19T00:24:35.353Z,78.20
2018-01-19T00:27:04.188Z,77.90
2018-01-19T00:29:32.544Z,77.90
2018-01-19T00:32:00.909Z,77.60
2018-01-19T00:34:30.078Z,77.60
2018-01-19T00:36:58.433Z,77.60
2018-01-19T00:39:27.115Z,77.50
2018-01-19T00:41:55.478Z,77.40
2018-01-19T00:44:23.829Z,77.30
2018-01-19T00:46:53.065Z,77.20
2018-01-19T00:49:22.405Z,77.20
2018-01-19T00:51:50.812Z,77.00
2018-01-19T00:54:19.932Z,77.10
2018-01-19T00:56:48.296Z,77.00
2018-01-19T00:59:16.688Z,77.10
2018-01-19T01:01:45.100Z,77.00
2018-01-19T01:04:13.653Z,77.00
2018-01-19T01:06:42.005Z,77.30
2018-01-19T01:09:12.437Z,77.50
2018-01-19T01:11:41.037Z,77.40
2018-01-19T01:14:10.329Z,78.00
2018-01-19T01:16:38.896Z,77.90
2018-01-19T01:19:08.109Z,78.20
2018-01-19T01:21:36.464Z,78.20
2018-01-19T01:24:05.609Z,78.60
2018-01-19T01:26:34.699Z,78.60
2018-01-19T01:29:03.178Z,78.50
2018-01-19T01:31:31.546Z,78.80
2018-01-19T01:33:59.905Z,79.20
2018-01-19T01:36:28.280Z,79.40
2018-01-19T01:38:57.410Z,80.50
2018-01-19T01:41:26.090Z,80.50
2018-01-19T01:43:54.505Z,80.80
2018-01-19T01:46:22.869Z,81.00
2018-01-19T01:49:09.344Z,80.90
2018-01-19T01:51:37.741Z,81.30
2018-01-19T01:54:06.156Z,81.50
2018-01-19T01:56:34.509Z,81.50
2018-01-19T01:59:02.867Z,81.60
2018-01-19T02:01:31.241Z,81.60
2018-01-19T02:03:59.593Z,81.30
2018-01-19T02:06:28.007Z,81.30
2018-01-19T02:08:56.352Z,81.40
2018-01-19T02:11:25.569Z,81.60
2018-01-19T02:13:53.945Z,81.60
2018-01-19T02:16:22.296Z,81.80
2018-01-19T02:18:51.729Z,82.00
2018-01-19T02:21:20.076Z,81.90
2018-01-19T02:23:49.209Z,82.00
2018-01-19T02:26:17.585Z,82.00
2018-01-19T02:28:45.935Z,81.60
2018-01-19T02:31:15.459Z,81.00
2018-01-19T02:33:43.812Z,81.00
2018-01-19T02:36:12.929Z,81.50
2018-01-19T02:38:41.304Z,81.50
2018-01-19T02:41:09.676Z,81.20
2018-01-19T02:43:38.269Z,81.30
2018-01-19T02:46:06.621Z,81.40
2018-01-19T02:48:35.737Z,80.70
2018-01-19T02:51:04.125Z,80.60
2018-01-19T02:53:32.492Z,81.00
2018-01-19T02:56:01.064Z,80.90
2018-01-19T02:58:30.197Z,80.30
2018-01-19T03:03:33.005Z,80.20
2018-01-19T03:06:01.369Z,80.20
2018-01-19T03:08:30.045Z,80.40
2018-01-19T03:10:58.397Z,80.50
2018-01-19T03:13:27.523Z,80.30
2018-01-19T03:15:55.898Z,80.30
2018-01-19T03:18:24.249Z,80.70
2018-01-19T03:20:53.396Z,80.50
2018-01-19T03:23:21.747Z,80.50
2018-01-19T03:25:50.097Z,80.00
2018-01-19T03:28:19.247Z,80.30
2018-01-19T03:30:47.601Z,80.10
2018-01-19T03:33:16.004Z,80.30
2018-01-19T03:35:44.387Z,79.80
2018-01-19T03:38:12.740Z,80.10
2018-01-19T03:40:41.116Z,80.10
2018-01-19T03:43:09.506Z,80.20
2018-01-19T03:45:38.056Z,80.00
2018-01-19T03:48:06.466Z,79.90
2018-01-19T03:50:34.832Z,80.10
2018-01-19T03:53:03.210Z,80.20
2018-01-19T03:55:31.568Z,80.10
2018-01-19T03:57:59.972Z,80.10
2018-01-19T04:00:28.324Z,80.30
2018-01-19T04:02:56.693Z,80.00
2018-01-19T04:05:25.828Z,80.40
2018-01-19T04:07:54.177Z,80.40
2018-01-19T04:10:22.567Z,80.20
2018-01-19T04:12:50.922Z,80.30
2018-01-19T04:15:19.289Z,80.50
2018-01-19T04:17:47.665Z,80.10
2018-01-19T04:20:16.017Z,80.00
2018-01-19T04:22:44.568Z,80.50
2018-01-19T04:25:12.919Z,80.00
2018-01-19T04:27:42.040Z,79.80
2018-01-19T04:30:10.422Z,79.70
2018-01-19T04:32:38.774Z,79.70
2018-01-19T04:35:08.096Z,79.20
2018-01-19T04:37:36.449Z,79.20
2018-01-19T04:40:06.150Z,78.80
2018-01-19T04:42:35.296Z,78.70
2018-01-19T04:45:03.648Z,78.70
2018-01-19T04:47:32.236Z,78.60
2018-01-19T04:50:00.636Z,79.10
2018-01-19T04:52:28.991Z,79.50
2018-01-19T04:54:57.376Z,77.10
2018-01-19T04:57:25.750Z,76.80
2018-01-19T04:59:54.148Z,76.50
2018-01-19T05:02:22.531Z,76.20
2018-01-19T05:04:50.904Z,77.00
2018-01-19T05:07:19.281Z,77.30
2018-01-19T05:09:47.633Z,77.60
2018-01-19T05:12:16.229Z,77.90
2018-01-19T05:14:44.585Z,78.10
2018-01-19T05:17:14.742Z,78.30
2018-01-19T05:19:43.120Z,78.30
2018-01-19T05:22:11.480Z,78.10
2018-01-19T05:24:40.065Z,78.30
2018-01-19T05:27:08.417Z,78.20
2018-01-19T05:29:37.536Z,78.10
2018-01-19T05:32:05.916Z,78.10
2018-01-19T05:34:34.268Z,78.00
2018-01-19T05:37:03.907Z,77.70
2018-01-19T05:39:32.263Z,77.70
2018-01-19T05:42:00.621Z,77.40
2018-01-19T05:44:28.998Z,77.40
2018-01-19T05:46:58.124Z,77.10
2018-01-19T05:49:26.516Z,77.10
2018-01-19T05:51:54.872Z,77.30
2018-01-19T05:54:23.223Z,77.80
2018-01-19T05:56:51.600Z,77.50
2018-01-19T05:59:19.955Z,77.40
2018-01-19T06:01:48.505Z,77.40
2018-01-19T06:04:16.867Z,77.50
2018-01-19T06:06:45.220Z,78.00
2018-01-19T06:09:13.605Z,78.10
2018-01-19T06:11:42.724Z,78.70
2018-01-19T06:14:11.130Z,78.60
2018-01-19T06:16:39.484Z,78.70
2018-01-19T06:19:07.845Z,78.90
2018-01-19T06:21:37.041Z,78.80
2018-01-19T06:24:06.161Z,78.40
2018-01-19T06:26:34.949Z,78.30
2018-01-19T06:29:03.346Z,77.80
2018-01-19T06:31:31.704Z,78.00
2018-01-19T06:34:00.077Z,77.70
2018-01-19T06:36:28.429Z,77.40
2018-01-19T06:38:58.069Z,76.70
2018-01-19T06:41:26.429Z,76.70
2018-01-19T06:43:54.789Z,77.00
2018-01-19T06:46:23.172Z,77.40
2018-01-19T06:48:52.306Z,77.30
2018-01-19T06:51:20.885Z,77.20
2018-01-19T06:53:49.243Z,77.00
2018-01-19T06:56:17.662Z,76.80
2018-01-19T06:58:46.037Z,76.70
2018-01-19T07:01:14.397Z,76.80
2018-01-19T07:03:43.185Z,76.90
2018-01-19T07:06:11.540Z,76.70
2018-01-19T07:08:40.655Z,76.50
2018-01-19T07:11:09.096Z,76.50
2018-01-19T07:13:37.458Z,76.30
2018-01-19T07:16:05.849Z,75.60
2018-01-19T07:18:34.208Z,75.80
2018-01-19T07:21:02.580Z,75.70
2018-01-19T07:23:30.959Z,75.20
2018-01-19T07:25:59.316Z,75.20
2018-01-19T07:28:27.743Z,75.20
2018-01-19T07:30:56.860Z,74.70
2018-01-19T07:33:25.992Z,74.40
2018-01-19T07:35:54.380Z,74.40
2018-01-19T07:38:22.736Z,71.40
2018-01-19T07:40:51.316Z,72.40
2018-01-19T07:43:19.672Z,71.80
2018-01-19T07:45:48.050Z,71.30
2018-01-19T07:48:17.188Z,70.00
2018-01-19T07:50:45.549Z,70.00
2018-01-19T07:53:14.236Z,70.00
2018-01-19T07:55:42.585Z,69.40
2018-01-19T07:58:11.710Z,69.10
2018-01-19T08:00:40.089Z,69.10
2018-01-19T08:03:08.436Z,69.10
2018-01-19T08:05:37.970Z,72.60
2018-01-19T08:08:07.193Z,72.60
2018-01-19T08:10:35.549Z,73.50
2018-01-19T08:13:03.911Z,74.30
2018-01-19T08:15:32.268Z,74.30
2018-01-19T08:18:01.455Z,73.40
2018-01-19T08:20:29.832Z,73.40
2018-01-19T08:22:58.198Z,72.40
2018-01-19T08:25:26.589Z,70.80
2018-01-19T08:27:54.948Z,70.10
2018-01-19T08:30:23.407Z,69.50
2018-01-19T08:32:51.762Z,68.90
2018-01-19T08:35:20.116Z,69.70
2018-01-19T08:37:49.257Z,69.70
2018-01-19T08:40:17.618Z,69.00
2018-01-19T08:42:46.010Z,69.30
2018-01-19T08:45:14.421Z,69.20
2018-01-19T08:47:43.540Z,69.10
2018-01-19T08:50:12.684Z,69.00
2018-01-19T08:52:41.036Z,68.80
2018-01-19T08:55:09.645Z,68.10
2018-01-19T08:57:37.996Z,68.70
2018-01-19T09:00:06.354Z,67.70
2018-01-19T09:02:35.498Z,66.20
2018-01-19T09:05:03.857Z,66.20
2018-01-19T09:07:32.448Z,64.80
2018-01-19T09:10:00.804Z,62.90
2018-01-19T09:12:29.929Z,63.00
2018-01-19T09:14:58.303Z,63.00
2018-01-19T09:17:26.692Z,63.80
2018-01-19T09:19:55.359Z,63.40
2018-01-19T09:22:23.716Z,64.00
2018-01-19T09:24:52.844Z,63.80
2018-01-19T09:27:21.225Z,64.50
2018-01-19T09:29:49.582Z,63.40
2018-01-19T09:32:18.001Z,63.40
2018-01-19T09:34:46.362Z,63.90
2018-01-19T09:37:14.716Z,63.60
2018-01-19T09:39:43.088Z,62.30
2018-01-19T09:42:11.445Z,61.30
2018-01-19T09:44:40.782Z,61.70
2018-01-19T09:47:09.132Z,61.80
2018-01-19T09:49:38.252Z,57.00
2018-01-19T09:52:06.632Z,57.00
2018-01-19T09:54:34.989Z,53.30
2018-01-19T09:57:04.312Z,50.10
2018-01-19T09:59:32.676Z,50.70
2018-01-19T10:02:01.050Z,46.80
2018-01-19T10:04:29.431Z,46.70
2018-01-19T10:06:57.801Z,48.20
2018-01-19T10:09:27.435Z,49.20
2018-01-19T10:11:55.783Z,49.20
2018-01-19T10:14:24.905Z,49.40
2018-01-19T10:16:53.284Z,49.40
2018-01-19T10:19:21.637Z,51.00
2018-01-19T10:21:51.177Z,51.90
2018-01-19T10:24:19.537Z,51.90
2018-01-19T10:26:47.889Z,51.40
2018-01-19T10:29:17.040Z,51.80
2018-01-19T10:31:45.394Z,51.80
2018-01-19T10:34:14.085Z,52.20
2018-01-19T10:36:42.436Z,53.70
2018-01-19T10:39:11.557Z,54.00
2018-01-19T10:41:39.946Z,54.00
2018-01-19T10:44:08.302Z,54.10
2018-01-19T10:46:37.001Z,54.70
2018-01-19T10:49:05.436Z,54.80
2018-01-19T10:51:33.809Z,55.40
2018-01-19T10:54:02.228Z,55.20
2018-01-19T10:56:30.585Z,55.50
2018-01-19T10:58:59.701Z,51.40
2018-01-19T11:01:28.080Z,51.40
2018-01-19T11:03:56.446Z,49.40
2018-01-19T11:06:25.586Z,49.50
2018-01-19T11:08:53.964Z,49.40
2018-01-19T11:11:22.316Z,50.00
2018-01-19T11:13:50.696Z,50.50
2018-01-19T11:16:19.069Z,51.10
2018-01-19T11:18:47.551Z,52.50
2018-01-19T11:21:15.908Z,52.40
2018-01-19T11:23:45.029Z,47.90
2018-01-19T11:26:13.554Z,47.80
2018-01-19T11:28:42.075Z,44.40
2018-01-19T11:31:10.529Z,40.10
2018-01-19T11:33:38.978Z,35.80
2018-01-19T11:36:07.446Z,34.80
2018-01-19T11:38:35.841Z,34.40
2018-01-19T11:41:04.205Z,34.10
2018-01-19T11:43:32.773Z,34.10
2018-01-19T11:46:01.170Z,33.00
2018-01-19T11:48:29.538Z,32.20
2018-01-19T11:50:57.924Z,31.90
2018-01-19T11:53:26.288Z,30.60
2018-01-19T11:55:54.880Z,30.10
2018-01-19T11:58:23.252Z,29.20
2018-01-19T12:00:51.622Z,29.90
2018-01-19T12:03:20.020Z,29.60
2018-01-19T12:05:48.385Z,31.30
2018-01-19T12:08:17.074Z,35.00
2018-01-19T12:10:45.438Z,38.60
2018-01-19T12:13:13.801Z,39.00
2018-01-19T12:15:42.949Z,39.70
2018-01-19T12:18:11.317Z,39.70
2018-01-19T12:20:39.884Z,42.40
2018-01-19T12:23:08.250Z,44.80
2018-01-19T12:25:36.612Z,46.50
2018-01-19T12:28:05.780Z,48.30
2018-01-19T12:30:34.220Z,48.30
2018-01-19T12:33:02.797Z,46.30
2018-01-19T12:35:31.161Z,43.80
2018-01-19T12:37:59.582Z,42.30
2018-01-19T12:40:27.977Z,41.20
2018-01-19T12:42:56.352Z,38.30
2018-01-19T12:45:25.202Z,36.80
2018-01-19T12:47:53.574Z,35.30
2018-01-19T12:50:21.936Z,33.40
2018-01-19T12:52:51.302Z,30.00
2018-01-19T12:55:20.459Z,30.00
2018-01-19T12:57:49.097Z,30.00
2018-01-19T13:00:17.536Z,29.70
2018-01-19T13:02:45.931Z,28.60
2018-01-19T13:05:14.410Z,27.40
2018-01-19T13:07:42.789Z,27.30
2018-01-19T13:10:11.446Z,26.80
2018-01-19T13:12:40.718Z,25.60
2018-01-19T13:15:10.021Z,24.70
2018-01-19T13:17:38.448Z,24.70
2018-01-19T13:20:06.826Z,23.60
2018-01-19T13:22:35.273Z,23.40
2018-01-19T13:25:03.633Z,25.20
2018-01-19T13:27:32.846Z,29.40
2018-01-19T13:30:01.234Z,29.30
2018-01-19T13:32:29.597Z,31.20
2018-01-19T13:34:58.314Z,32.90
2018-01-19T13:37:26.795Z,34.80
2018-01-19T13:39:55.166Z,33.50
2018-01-19T13:42:23.557Z,31.80
2018-01-19T13:44:51.988Z,31.60
2018-01-19T13:47:21.525Z,31.80
2018-01-19T13:49:50.021Z,31.70
2018-01-19T13:52:18.398Z,32.10
2018-01-19T13:54:46.789Z,33.90
2018-01-19T13:57:15.161Z,35.30
2018-01-19T13:59:43.637Z,36.60
2018-01-19T14:02:11.993Z,39.40
2018-01-19T14:04:40.356Z,40.40
2018-01-19T14:07:08.870Z,41.60
2018-01-19T14:09:37.253Z,43.30
2018-01-19T14:12:06.022Z,44.70
2018-01-19T14:14:34.383Z,46.20
2018-01-19T14:17:02.745Z,46.90
2018-01-19T14:19:31.896Z,48.40
2018-01-19T14:22:00.259Z,48.40
2018-01-19T14:24:29.056Z,48.50
2018-01-19T14:26:57.535Z,48.50
2018-01-19T14:29:25.953Z,48.90
2018-01-19T14:31:55.124Z,49.70
2018-01-19T14:34:23.483Z,49.60
2018-01-19T14:36:52.380Z,49.50
2018-01-19T14:39:20.781Z,49.70
2018-01-19T14:41:49.264Z,50.80
2018-01-19T14:44:17.644Z,50.60
2018-01-19T14:46:46.200Z,50.80
2018-01-19T14:49:14.971Z,50.90
2018-01-19T14:51:43.359Z,51.10
2018-01-19T14:54:11.721Z,51.30
2018-01-19T14:56:40.122Z,51.70
2018-01-19T14:59:08.604Z,51.30
2018-01-19T15:01:37.022Z,51.40
2018-01-19T15:04:05.377Z,51.50
2018-01-19T15:06:33.841Z,51.60
2018-01-19T15:09:02.245Z,52.20
2018-01-19T15:11:30.848Z,52.20
2018-01-19T15:13:59.905Z,52.50
2018-01-19T15:16:28.338Z,52.80
2018-01-19T15:18:56.713Z,52.80
2018-01-19T15:21:25.912Z,53.20
2018-01-19T15:23:55.616Z,52.30
2018-01-19T15:26:25.574Z,53.00
2018-01-19T15:28:54.082Z,53.00
2018-01-19T15:31:22.539Z,53.10
2018-01-19T15:33:50.934Z,53.80
2018-01-19T15:36:19.808Z,54.40
2018-01-19T15:38:48.678Z,55.30
2018-01-19T15:41:17.033Z,56.00
2018-01-19T15:43:46.153Z,57.20
2018-01-19T15:46:14.530Z,57.20
2018-01-19T15:48:42.901Z,57.60
2018-01-19T15:51:11.509Z,58.00
2018-01-19T15:53:40.026Z,57.90
2018-01-19T15:56:08.521Z,58.00
2018-01-19T15:58:37.666Z,58.20
2018-01-19T16:01:06.024Z,58.10
2018-01-19T16:03:34.626Z,58.30
2018-01-19T16:06:03.022Z,58.50
2018-01-19T16:08:31.389Z,58.90
2018-01-19T16:10:59.777Z,58.70
2018-01-19T16:13:28.132Z,58.90
2018-01-19T16:15:57.439Z,59.00
2018-01-19T16:18:26.234Z,59.00
2018-01-19T16:20:55.125Z,59.20
2018-01-19T16:23:24.844Z,59.60
2018-01-19T16:25:53.216Z,59.50
2018-01-19T16:28:21.749Z,59.80
2018-01-19T16:30:50.898Z,60.30
2018-01-19T16:33:19.260Z,60.30
2018-01-19T16:35:47.710Z,60.00
2018-01-19T16:38:16.149Z,59.90
2018-01-19T16:40:45.251Z,60.20
2018-01-19T16:43:13.656Z,60.30
2018-01-19T16:45:42.837Z,60.60
2018-01-19T16:48:11.280Z,60.60
2018-01-19T16:50:39.918Z,60.70
2018-01-19T16:53:09.311Z,60.80
2018-01-19T16:55:37.692Z,60.60
2018-01-19T16:58:06.828Z,61.30
2018-01-19T17:00:35.288Z,60.50
2018-01-19T17:03:03.643Z,60.70
2018-01-19T17:05:32.272Z,61.00
2018-01-19T17:08:00.956Z,61.20
2018-01-19T17:10:29.756Z,61.00
2018-01-19T17:13:00.333Z,60.80
2018-01-19T17:15:29.896Z,60.60
2018-01-19T17:17:58.780Z,60.60
2018-01-19T17:20:27.777Z,60.70
2018-01-19T17:22:56.222Z,60.70
2018-01-19T17:25:24.603Z,61.00
2018-01-19T17:27:52.996Z,61.20
2018-01-19T17:30:21.537Z,60.60
2018-01-19T17:32:49.894Z,60.40
2018-01-19T17:35:18.257Z,60.60
2018-01-19T17:37:47.095Z,60.80
2018-01-19T17:40:15.621Z,61.60
2018-01-19T17:42:44.057Z,63.00
2018-01-19T17:45:16.150Z,65.20
2018-01-19T17:47:45.011Z,65.20
2018-01-19T17:50:13.629Z,65.20
2018-01-19T17:52:42.418Z,66.00
2018-01-19T17:55:10.840Z,67.00
2018-01-19T17:57:40.000Z,67.30
2018-01-19T18:00:08.994Z,67.70
2018-01-19T18:02:37.684Z,68.00
2018-01-19T18:05:07.141Z,68.40
2018-01-19T18:07:35.572Z,68.00
2018-01-19T18:10:04.252Z,67.80
2018-01-19T18:12:33.335Z,67.80
2018-01-19T18:15:01.786Z,67.90
2018-01-19T18:17:30.367Z,67.90
2018-01-19T18:19:59.980Z,68.20
2018-01-19T18:22:28.583Z,68.20
2018-01-19T18:24:57.389Z,68.20
2018-01-19T18:27:26.700Z,68.70
2018-01-19T18:29:56.248Z,68.50
2018-01-19T18:32:25.085Z,68.40
2018-01-19T18:34:53.980Z,68.70
2018-01-19T18:37:23.581Z,68.70
2018-01-19T18:39:52.677Z,68.60
2018-01-19T18:42:21.158Z,68.60
2018-01-19T18:44:49.689Z,68.70
2018-01-19T18:47:18.925Z,69.40
2018-01-19T18:49:47.787Z,69.40
2018-01-19T18:52:17.480Z,70.00
2018-01-19T18:54:46.571Z,69.90
2018-01-19T18:57:15.903Z,70.10
2018-01-19T18:59:44.321Z,70.20
2018-01-19T19:02:13.969Z,70.30
2018-01-19T19:04:42.434Z,70.10
2018-01-19T19:07:11.691Z,69.90
2018-01-19T19:09:40.145Z,70.00
2018-01-19T19:12:08.865Z,69.90
2018-01-19T19:14:37.447Z,69.80
2018-01-19T19:17:05.837Z,69.80
2018-01-19T19:19:34.200Z,70.00
2018-01-19T19:22:03.010Z,70.30
2018-01-19T19:24:31.384Z,70.10
2018-01-19T19:27:00.158Z,70.20
2018-01-19T19:29:28.592Z,70.20
2018-01-19T19:31:57.996Z,70.10
2018-01-19T19:34:27.761Z,70.20
2018-01-19T19:36:56.479Z,70.10
2018-01-19T19:39:25.327Z,69.90
2018-01-19T19:41:56.368Z,69.30
2018-01-19T19:44:25.157Z,69.30
2018-01-19T19:46:54.046Z,69.10
2018-01-19T19:49:22.478Z,69.10
2018-01-19T19:51:51.614Z,68.70
2018-01-19T19:54:20.819Z,68.70
2018-01-19T19:56:49.372Z,68.60
2018-01-19T19:59:19.280Z,68.80
2018-01-19T20:01:47.706Z,68.70
2018-01-19T20:04:16.689Z,69.00
2018-01-19T20:06:45.081Z,69.40
2018-01-19T20:09:13.666Z,69.50
2018-01-19T20:11:43.281Z,69.40
2018-01-19T20:14:11.950Z,69.40
2018-01-19T20:16:40.729Z,69.40
2018-01-19T20:19:09.365Z,69.10
2018-01-19T20:21:38.509Z,69.10
2018-01-19T20:24:07.567Z,69.10
2018-01-19T20:26:36.086Z,68.80
2018-01-19T20:29:04.468Z,68.30
2018-01-19T20:31:33.187Z,68.20
2018-01-19T20:34:01.553Z,68.20
2018-01-19T20:36:31.603Z,68.00
2018-01-19T20:39:00.471Z,68.10
2018-01-19T20:41:29.793Z,69.40
2018-01-19T20:43:58.810Z,69.40
2018-01-19T20:46:27.884Z,70.20
2018-01-19T20:48:56.565Z,70.70
2018-01-19T20:51:25.755Z,71.30
2018-01-19T20:53:54.936Z,71.40
2018-01-19T20:56:23.396Z,71.30
2018-01-19T20:58:51.754Z,71.00
2018-01-19T21:01:20.209Z,71.10
2018-01-19T21:03:49.073Z,70.80
2018-01-19T21:06:19.493Z,70.60
2018-01-19T21:08:49.341Z,70.60
2018-01-19T21:11:17.902Z,70.30
2018-01-19T21:13:46.846Z,70.30
2018-01-19T21:16:16.436Z,70.30
2018-01-19T21:18:46.472Z,70.30
2018-01-19T21:21:15.908Z,70.40
2018-01-19T21:23:45.257Z,70.30
2018-01-19T21:26:15.968Z,70.30
2018-01-19T21:28:45.260Z,71.00
2018-01-19T21:31:14.280Z,71.00
2018-01-19T21:33:43.121Z,71.20
2018-01-19T21:36:12.911Z,71.80
2018-01-19T21:38:41.973Z,71.80
2018-01-19T21:41:10.940Z,72.00
2018-01-19T21:43:39.761Z,72.30
2018-01-19T21:46:08.483Z,72.80
2018-01-19T21:48:38.849Z,74.60
2018-01-19T21:51:08.256Z,74.60
2018-01-19T21:53:36.929Z,75.00
2018-01-19T21:56:06.154Z,75.60
2018-01-19T21:58:34.529Z,75.60
2018-01-19T22:01:06.840Z,75.80
2018-01-19T22:03:36.032Z,76.20
2018-01-19T22:06:04.468Z,76.20
2018-01-19T22:08:33.472Z,76.70
2018-01-19T22:11:02.518Z,77.40
2018-01-19T22:13:31.928Z,77.70
2018-01-19T22:16:00.935Z,77.90
2018-01-19T22:18:29.878Z,78.00
2018-01-19T22:20:58.850Z,78.30
2018-01-19T22:23:28.656Z,78.50
2018-01-19T22:25:57.229Z,78.60
2018-01-19T22:28:25.581Z,78.90
2018-01-19T22:30:55.039Z,78.80
2018-01-19T22:33:24.128Z,78.80
2018-01-19T22:35:52.539Z,79.00
2018-01-19T22:38:21.451Z,79.30
2018-01-19T22:40:50.645Z,79.40
2018-01-19T22:43:19.005Z,79.40
2018-01-19T22:45:47.382Z,79.40
2018-01-19T22:48:15.747Z,79.60
2018-01-19T22:50:44.319Z,79.70
2018-01-19T22:53:12.853Z,79.70
2018-01-19T22:55:42.181Z,79.80
2018-01-19T22:58:11.121Z,79.80
2018-01-19T23:00:39.490Z,80.00
2018-01-19T23:03:08.041Z,79.90
2018-01-19T23:05:36.434Z,80.00
2018-01-19T23:08:04.928Z,80.00
2018-01-19T23:10:33.342Z,80.00
2018-01-19T23:13:02.465Z,79.50
2018-01-19T23:15:30.966Z,79.40
2018-01-19T23:17:59.321Z,79.40
2018-01-19T23:20:27.681Z,79.00
2018-01-19T23:22:56.839Z,78.60
2018-01-19T23:25:25.248Z,78.60
2018-01-19T23:27:53.772Z,78.40
2018-01-19T23:30:22.121Z,78.40
2018-01-19T23:32:51.236Z,78.60
2018-01-19T23:35:19.611Z,78.50
2018-01-19T23:37:47.964Z,78.70
2018-01-19T23:40:17.301Z,78.80
2018-01-19T23:42:45.652Z,78.80
2018-01-19T23:45:14.773Z,78.70
2018-01-19T23:47:43.149Z,78.70
2018-01-19T23:50:11.528Z,78.70
2018-01-19T23:52:40.109Z,78.80
2018-01-19T23:55:08.468Z,78.70
2018-01-19T23:57:37.586Z,78.40
